createdAt,value
2023-03-01T00:01:49.806Z,15.70
2023-03-01T00:04:18.153Z,18.83
2023-03-01T00:06:46.975Z,18.20
2023-03-01T00:09:16.247Z,16.77
2023-03-01T00:11:44.942Z,16.30
2023-03-01T00:14:13.647Z,17.07
2023-03-01T00:16:44.321Z,16.10
2023-03-01T00:19:17.678Z,17.73
2023-03-01T00:21:46.067Z,18.30
2023-03-01T00:24:15.412Z,18.00
2023-03-01T00:26:43.839Z,15.97
2023-03-01T00:29:12.865Z,20.17
2023-03-01T00:31:41.233Z,13.53
2023-03-01T00:34:09.482Z,18.87
2023-03-01T00:36:40.144Z,16.03
2023-03-01T00:39:13.265Z,15.07
2023-03-01T00:41:42.133Z,13.20
2023-03-01T00:44:10.966Z,17.43
2023-03-01T00:46:39.296Z,19.20
2023-03-01T00:49:07.697Z,17.07
2023-03-01T00:51:35.974Z,14.87
2023-03-01T00:54:05.636Z,16.10
2023-03-01T00:56:34.728Z,16.53
2023-03-01T00:59:03.574Z,13.47
2023-03-01T01:01:33.146Z,16.23
2023-03-01T01:04:03.869Z,15.27
2023-03-01T01:06:36.181Z,13.90
2023-03-01T01:09:08.559Z,15.53
2023-03-01T01:11:38.331Z,15.80
2023-03-01T01:14:06.745Z,15.40
2023-03-01T01:16:35.344Z,16.43
2023-03-01T01:19:04.060Z,18.60
2023-03-01T01:21:32.939Z,15.17
2023-03-01T01:24:01.243Z,22.87
2023-03-01T01:26:34.179Z,16.33
2023-03-01T01:29:05.267Z,16.80
2023-03-01T01:31:36.117Z,19.37
2023-03-01T01:34:06.899Z,19.03
2023-03-01T01:36:35.923Z,20.70
2023-03-01T01:39:05.062Z,17.23
2023-03-01T01:41:35.970Z,16.47
2023-03-01T01:44:29.711Z,19.90
2023-03-01T01:47:02.499Z,17.77
2023-03-01T01:49:35.540Z,14.83
2023-03-01T01:52:11.982Z,21.27
2023-03-01T01:54:46.334Z,21.07
2023-03-01T01:57:21.228Z,21.23
2023-03-01T01:59:54.502Z,17.60
2023-03-01T02:02:23.547Z,19.93
2023-03-01T02:04:59.609Z,21.23
2023-03-01T02:07:28.760Z,18.60
2023-03-01T02:09:57.199Z,24.60
2023-03-01T02:12:27.886Z,20.87
2023-03-01T02:14:57.007Z,22.90
2023-03-01T02:17:25.900Z,24.30
2023-03-01T02:20:12.084Z,20.23
2023-03-01T02:22:41.224Z,22.00
2023-03-01T02:25:24.798Z,23.33
2023-03-01T02:28:01.916Z,20.43
2023-03-01T02:30:33.440Z,20.83
2023-03-01T02:33:04.379Z,20.27
2023-03-01T02:35:37.232Z,21.20
2023-03-01T02:38:09.162Z,19.87
2023-03-01T02:40:40.382Z,16.30
2023-03-01T02:43:12.676Z,17.67
2023-03-01T02:45:51.390Z,23.00
2023-03-01T02:48:19.858Z,17.50
2023-03-01T02:51:06.386Z,23.50
2023-03-01T02:53:43.405Z,19.30
2023-03-01T02:56:13.879Z,18.60
2023-03-01T02:58:46.703Z,21.57
2023-03-01T03:01:17.360Z,19.77
2023-03-01T03:03:46.258Z,20.67
2023-03-01T03:06:15.727Z,22.30
2023-03-01T03:08:44.866Z,22.93
2023-03-01T03:11:13.076Z,16.13
2023-03-01T03:13:48.910Z,19.57
2023-03-01T03:16:19.217Z,21.23
2023-03-01T03:18:47.603Z,19.17
2023-03-01T03:21:17.236Z,25.27
2023-03-01T03:23:45.795Z,17.40
2023-03-01T03:26:16.149Z,19.20
2023-03-01T03:28:44.573Z,19.63
2023-03-01T03:31:13.077Z,20.53
2023-03-01T03:33:43.004Z,20.57
2023-03-01T03:36:14.050Z,21.40
2023-03-01T03:38:42.694Z,19.93
2023-03-01T03:41:11.076Z,22.73
2023-03-01T03:43:40.913Z,19.40
2023-03-01T03:46:09.590Z,20.80
2023-03-01T03:48:40.327Z,19.80
2023-03-01T03:51:13.336Z,20.23
2023-03-01T03:53:42.265Z,18.87
2023-03-01T03:56:10.507Z,24.83
2023-03-01T03:58:39.281Z,18.40
2023-03-01T04:01:08.143Z,19.97
2023-03-01T04:03:37.002Z,20.77
2023-03-01T04:06:07.011Z,19.33
2023-03-01T04:08:36.491Z,20.27
2023-03-01T04:11:21.046Z,18.67
2023-03-01T04:13:49.582Z,20.93
2023-03-01T04:16:18.697Z,18.80
2023-03-01T04:18:47.537Z,20.60
2023-03-01T04:21:16.108Z,21.10
2023-03-01T04:23:45.961Z,18.73
2023-03-01T04:26:14.540Z,17.30
2023-03-01T04:28:46.149Z,18.30
2023-03-01T04:31:19.181Z,19.23
2023-03-01T04:33:52.638Z,21.70
2023-03-01T04:36:23.789Z,17.93
2023-03-01T04:38:54.329Z,19.07
2023-03-01T04:41:25.801Z,17.53
2023-03-01T04:43:54.231Z,17.53
2023-03-01T04:46:23.573Z,18.30
2023-03-01T04:48:52.166Z,19.93
2023-03-01T04:51:20.535Z,22.93
2023-03-01T04:53:48.936Z,16.60
2023-03-01T04:56:19.522Z,18.17
2023-03-01T04:58:48.376Z,20.10
2023-03-01T05:01:20.750Z,21.33
2023-03-01T05:03:51.539Z,19.50
2023-03-01T05:06:21.144Z,19.20
2023-03-01T05:08:49.543Z,19.47
2023-03-01T05:11:19.156Z,21.63
2023-03-01T05:13:47.435Z,20.90
2023-03-01T05:16:15.874Z,23.40
2023-03-01T05:18:44.269Z,23.10
2023-03-01T05:21:16.835Z,20.87
2023-03-01T05:23:45.652Z,21.97
2023-03-01T05:26:27.902Z,21.43
2023-03-01T05:28:59.849Z,22.40
2023-03-01T05:31:29.155Z,23.00
2023-03-01T05:33:57.515Z,25.77
2023-03-01T05:36:25.983Z,22.10
2023-03-01T05:38:54.376Z,21.10
2023-03-01T05:41:22.541Z,21.97
2023-03-01T05:43:50.703Z,20.93
2023-03-01T05:46:21.571Z,21.70
2023-03-01T05:48:49.801Z,23.00
2023-03-01T05:51:18.649Z,24.63
2023-03-01T05:53:46.864Z,24.13
2023-03-01T05:56:15.020Z,18.83
2023-03-01T05:58:43.253Z,21.37
2023-03-01T06:01:14.747Z,21.77
2023-03-01T06:03:44.762Z,26.33
2023-03-01T06:06:12.981Z,20.07
2023-03-01T06:08:41.245Z,22.50
2023-03-01T06:11:09.705Z,18.73
2023-03-01T06:13:38.372Z,27.70
2023-03-01T06:16:08.905Z,23.40
2023-03-01T06:18:37.274Z,20.43
2023-03-01T06:21:09.672Z,21.33
2023-03-01T06:23:38.431Z,20.23
2023-03-01T06:26:08.946Z,26.60
2023-03-01T06:28:37.618Z,22.67
2023-03-01T06:31:10.021Z,21.43
2023-03-01T06:33:38.320Z,21.53
2023-03-01T06:36:10.431Z,20.77
2023-03-01T06:38:38.743Z,25.73
2023-03-01T06:41:07.727Z,20.43
2023-03-01T06:43:36.007Z,23.77
2023-03-01T06:46:07.713Z,23.23
2023-03-01T06:48:37.352Z,21.00
2023-03-01T06:51:07.323Z,24.50
2023-03-01T06:53:36.496Z,22.50
2023-03-01T06:56:05.268Z,21.40
2023-03-01T06:58:33.541Z,24.00
2023-03-01T07:01:06.482Z,22.63
2023-03-01T07:03:34.994Z,23.27
2023-03-01T07:06:03.310Z,21.20
2023-03-01T07:08:33.148Z,28.63
2023-03-01T07:11:03.349Z,28.27
2023-03-01T07:13:35.206Z,22.30
2023-03-01T07:16:03.646Z,24.30
2023-03-01T07:18:32.112Z,24.60
2023-03-01T07:21:00.531Z,20.57
2023-03-01T07:23:28.901Z,25.00
2023-03-01T07:25:58.565Z,21.83
2023-03-01T07:28:27.209Z,22.87
2023-03-01T07:31:02.923Z,22.87
2023-03-01T07:33:31.549Z,24.87
2023-03-01T07:36:00.649Z,21.20
2023-03-01T07:38:30.390Z,24.23
2023-03-01T07:41:02.882Z,21.20
2023-03-01T07:43:32.633Z,21.70
2023-03-01T07:46:02.446Z,22.90
2023-03-01T07:48:32.522Z,24.93
2023-03-01T07:51:01.651Z,21.20
2023-03-01T07:53:31.832Z,21.33
2023-03-01T07:56:06.099Z,20.13
2023-03-01T07:58:36.841Z,22.33
2023-03-01T08:01:06.128Z,23.70
2023-03-01T08:03:34.711Z,22.13
2023-03-01T08:06:03.913Z,19.13
2023-03-01T08:08:35.232Z,21.70
2023-03-01T08:11:07.752Z,19.70
2023-03-01T08:13:36.384Z,20.53
2023-03-01T08:16:05.757Z,18.60
2023-03-01T08:18:34.434Z,21.23
2023-03-01T08:21:05.562Z,20.27
2023-03-01T08:23:33.877Z,25.10
2023-03-01T08:26:13.963Z,18.50
2023-03-01T08:28:45.605Z,32.47
2023-03-01T08:31:21.367Z,22.10
2023-03-01T08:33:56.217Z,18.80
2023-03-01T08:36:25.096Z,19.20
2023-03-01T08:38:53.616Z,21.87
2023-03-01T08:41:23.658Z,21.07
2023-03-01T08:43:53.417Z,21.73
2023-03-01T08:46:21.564Z,17.23
2023-03-01T08:48:49.755Z,21.10
2023-03-01T08:51:20.472Z,19.63
2023-03-01T08:53:49.656Z,17.50
2023-03-01T08:56:20.443Z,20.93
2023-03-01T08:58:51.366Z,19.47
2023-03-01T09:01:21.440Z,20.43
2023-03-01T09:03:49.682Z,20.47
2023-03-01T09:06:18.582Z,17.50
2023-03-01T09:08:49.132Z,17.70
2023-03-01T09:11:20.166Z,17.33
2023-03-01T09:13:51.156Z,18.47
2023-03-01T09:16:21.884Z,16.80
2023-03-01T09:18:52.537Z,18.80
2023-03-01T09:21:39.164Z,20.03
2023-03-01T09:24:40.333Z,16.93
2023-03-01T09:27:19.985Z,16.47
2023-03-01T09:29:49.795Z,18.03
2023-03-01T09:33:00.521Z,16.93
2023-03-01T09:35:34.240Z,15.57
2023-03-01T09:38:02.685Z,14.80
2023-03-01T09:40:31.770Z,17.90
2023-03-01T09:43:09.453Z,18.20
2023-03-01T09:45:45.358Z,19.10
2023-03-01T09:48:19.389Z,23.17
2023-03-01T09:50:48.394Z,15.30
2023-03-01T09:53:20.254Z,17.37
2023-03-01T09:55:56.758Z,20.23
2023-03-01T09:58:40.856Z,18.10
2023-03-01T10:01:35.630Z,14.20
2023-03-01T10:04:40.749Z,14.80
2023-03-01T10:07:29.992Z,16.83
2023-03-01T10:09:58.402Z,15.90
2023-03-01T10:12:33.003Z,15.60
2023-03-01T10:15:08.964Z,15.30
2023-03-01T10:17:45.403Z,15.77
2023-03-01T10:20:21.779Z,14.10
2023-03-01T10:22:53.418Z,15.47
2023-03-01T10:25:38.884Z,14.73
2023-03-01T10:28:18.802Z,15.40
2023-03-01T10:30:47.530Z,16.93
2023-03-01T10:33:23.252Z,16.53
2023-03-01T10:35:51.873Z,17.70
2023-03-01T10:38:22.060Z,14.40
2023-03-01T10:40:57.851Z,15.33
2023-03-01T10:43:27.790Z,15.40
2023-03-01T10:45:56.141Z,17.53
2023-03-01T10:48:29.216Z,17.50
2023-03-01T10:51:09.102Z,14.77
2023-03-01T10:53:41.732Z,15.93
2023-03-01T10:56:13.043Z,14.10
2023-03-01T10:59:00.016Z,14.27
2023-03-01T11:01:30.915Z,14.77
2023-03-01T11:04:14.694Z,13.90
2023-03-01T11:06:43.798Z,15.47
2023-03-01T11:09:21.322Z,11.20
2023-03-01T11:11:55.621Z,13.70
2023-03-01T11:14:27.898Z,15.47
2023-03-01T11:17:05.675Z,19.97
2023-03-01T11:19:35.400Z,15.67
2023-03-01T11:22:07.645Z,15.07
2023-03-01T11:24:43.462Z,13.30
2023-03-01T11:27:20.975Z,14.23
2023-03-01T11:29:54.037Z,15.33
2023-03-01T11:32:26.792Z,15.93
2023-03-01T11:35:01.431Z,12.57
2023-03-01T11:37:39.252Z,15.03
2023-03-01T11:40:18.383Z,14.90
2023-03-01T11:43:08.484Z,13.17
2023-03-01T11:45:52.963Z,12.37
2023-03-01T11:48:49.340Z,14.93
2023-03-01T11:51:27.929Z,13.40
2023-03-01T11:54:16.371Z,13.47
2023-03-01T11:56:50.681Z,14.07
2023-03-01T12:00:00.331Z,12.33
2023-03-01T12:03:22.251Z,13.03
2023-03-01T12:06:28.810Z,12.87
2023-03-01T12:09:14.742Z,16.60
2023-03-01T12:12:03.124Z,20.57
2023-03-01T12:15:05.628Z,17.57
2023-03-01T12:18:00.868Z,14.67
2023-03-01T12:20:36.749Z,15.47
2023-03-01T12:23:34.318Z,14.87
2023-03-01T12:26:14.292Z,14.33
2023-03-01T12:29:00.159Z,13.63
2023-03-01T12:32:02.990Z,14.27
2023-03-01T12:34:50.641Z,13.70
2023-03-01T12:37:31.683Z,12.57
2023-03-01T12:40:25.130Z,14.03
2023-03-01T12:43:09.729Z,18.00
2023-03-01T12:45:59.961Z,15.83
2023-03-01T12:48:51.969Z,13.17
2023-03-01T12:51:26.211Z,13.37
2023-03-01T12:54:00.178Z,15.70
2023-03-01T12:56:34.351Z,14.47
2023-03-01T12:59:18.588Z,14.70
2023-03-01T13:01:56.391Z,14.47
2023-03-01T13:04:56.362Z,13.67
2023-03-01T13:07:36.100Z,13.97
2023-03-01T13:10:22.389Z,17.13
2023-03-01T13:13:10.889Z,13.40
2023-03-01T13:15:41.616Z,16.37
2023-03-01T13:18:33.301Z,17.43
2023-03-01T13:21:09.396Z,16.00
2023-03-01T13:23:40.229Z,16.60
2023-03-01T13:26:16.483Z,15.60
2023-03-01T13:29:01.992Z,16.87
2023-03-01T13:32:01.577Z,17.20
2023-03-01T13:34:57.323Z,17.17
2023-03-01T13:37:38.914Z,18.17
2023-03-01T13:41:00.990Z,16.90
2023-03-01T13:43:34.018Z,15.50
2023-03-01T13:46:04.730Z,17.80
2023-03-01T13:48:35.535Z,15.67
2023-03-01T13:51:06.902Z,16.43
2023-03-01T13:53:39.027Z,16.93
2023-03-01T13:56:14.817Z,18.53
2023-03-01T13:58:55.706Z,16.87
2023-03-01T14:01:30.094Z,18.70
2023-03-01T14:03:59.564Z,21.00
2023-03-01T14:06:31.239Z,20.97
2023-03-01T14:09:19.338Z,17.43
2023-03-01T14:12:09.197Z,19.20
2023-03-01T14:14:46.494Z,19.70
2023-03-01T14:17:51.934Z,18.53
2023-03-01T14:20:24.080Z,20.23
2023-03-01T14:22:55.915Z,22.60
2023-03-01T14:25:29.686Z,17.97
2023-03-01T14:28:06.174Z,20.40
2023-03-01T14:30:39.892Z,21.10
2023-03-01T14:33:22.053Z,18.00
2023-03-01T14:36:00.313Z,18.90
2023-03-01T14:38:35.803Z,19.10
2023-03-01T14:41:08.105Z,23.53
2023-03-01T14:43:43.869Z,21.53
2023-03-01T14:46:22.069Z,19.17
2023-03-01T14:48:53.001Z,20.63
2023-03-01T14:51:21.521Z,18.60
2023-03-01T14:53:51.415Z,18.07
2023-03-01T14:56:20.336Z,20.57
2023-03-01T14:58:54.656Z,22.60
2023-03-01T15:01:24.223Z,22.20
2023-03-01T15:03:53.930Z,19.50
2023-03-01T15:06:25.288Z,20.10
2023-03-01T15:08:57.866Z,20.60
2023-03-01T15:11:31.525Z,20.87
2023-03-01T15:15:02.678Z,17.13
2023-03-01T15:17:35.502Z,18.00
2023-03-01T15:20:08.208Z,20.17
2023-03-01T15:22:39.161Z,19.80
2023-03-01T15:29:00.899Z,20.30
2023-03-01T15:31:36.141Z,21.43
2023-03-01T15:34:21.591Z,19.53
2023-03-01T15:36:51.408Z,20.97
2023-03-01T15:39:41.058Z,19.40
2023-03-01T15:42:18.667Z,18.53
2023-03-01T15:44:46.994Z,21.50
2023-03-01T15:47:34.043Z,19.73
2023-03-01T15:52:56.621Z,21.03
2023-03-01T15:55:29.773Z,22.37
2023-03-01T15:58:12.262Z,19.33
2023-03-01T16:00:51.356Z,26.10
2023-03-01T16:03:29.122Z,21.70
2023-03-01T16:05:57.884Z,22.27
2023-03-01T16:08:26.438Z,19.83
2023-03-01T16:11:15.720Z,20.03
2023-03-01T16:14:57.377Z,18.67
2023-03-01T16:17:46.186Z,23.00
2023-03-01T16:25:06.678Z,18.80
2023-03-01T16:27:53.104Z,26.47
2023-03-01T16:30:29.796Z,21.43
2023-03-01T16:33:56.293Z,20.30
2023-03-01T16:36:33.093Z,18.20
2023-03-01T16:39:08.661Z,21.73
2023-03-01T16:41:36.859Z,26.43
2023-03-01T16:44:05.303Z,22.20
2023-03-01T16:46:37.176Z,19.83
2023-03-01T16:49:05.449Z,20.70
2023-03-01T16:51:37.348Z,20.60
2023-03-01T16:54:10.203Z,19.93
2023-03-01T16:56:43.197Z,17.97
2023-03-01T16:59:11.958Z,20.40
2023-03-01T17:01:42.568Z,19.30
2023-03-01T17:04:13.677Z,17.90
2023-03-01T17:06:47.745Z,19.50
2023-03-01T17:09:17.745Z,23.00
2023-03-01T17:11:46.237Z,21.33
2023-03-01T17:14:16.547Z,23.07
2023-03-01T17:16:46.015Z,20.73
2023-03-01T17:19:18.752Z,25.07
2023-03-01T17:21:48.571Z,25.43
2023-03-01T17:24:17.677Z,23.47
2023-03-01T17:26:45.971Z,20.70
2023-03-01T17:29:14.288Z,25.73
2023-03-01T17:31:42.738Z,24.83
2023-03-01T17:34:16.595Z,20.83
2023-03-01T17:36:46.840Z,19.40
2023-03-01T17:39:16.486Z,18.50
2023-03-01T17:41:45.072Z,19.60
2023-03-01T17:44:13.510Z,17.57
2023-03-01T17:46:42.053Z,22.60
2023-03-01T17:49:10.470Z,25.80
2023-03-01T17:51:38.948Z,19.93
2023-03-01T17:54:09.416Z,22.60
2023-03-01T17:56:39.457Z,19.23
2023-03-01T17:59:07.880Z,19.00
2023-03-01T18:01:36.520Z,22.87
2023-03-01T18:04:04.860Z,21.40
2023-03-01T18:06:33.477Z,24.70
2023-03-01T18:09:02.049Z,26.43
2023-03-01T18:11:30.455Z,26.87
2023-03-01T18:14:00.501Z,32.60
2023-03-01T18:16:31.848Z,20.93
2023-03-01T18:19:02.601Z,24.63
2023-03-01T18:21:31.996Z,20.90
2023-03-01T18:24:00.696Z,33.03
2023-03-01T18:26:29.819Z,31.87
2023-03-01T18:29:01.242Z,30.47
2023-03-01T18:31:33.327Z,27.80
2023-03-01T18:34:02.172Z,20.00
2023-03-01T18:36:33.675Z,19.50
2023-03-01T18:39:03.447Z,21.63
2023-03-01T18:41:32.898Z,18.83
2023-03-01T18:44:03.731Z,21.70
2023-03-01T18:46:35.298Z,22.17
2023-03-01T18:49:04.767Z,19.60
2023-03-01T18:51:35.406Z,25.37
2023-03-01T18:54:04.139Z,19.37
2023-03-01T18:56:35.478Z,21.03
2023-03-01T18:59:06.041Z,23.63
2023-03-01T19:01:37.331Z,22.60
2023-03-01T19:04:09.050Z,21.57
2023-03-01T19:06:38.858Z,20.90
2023-03-01T19:09:08.837Z,24.37
2023-03-01T19:11:37.534Z,27.13
2023-03-01T19:14:08.465Z,24.47
2023-03-01T19:16:37.020Z,20.20
2023-03-01T19:19:09.598Z,20.47
2023-03-01T19:21:38.372Z,22.13
2023-03-01T19:24:07.405Z,22.40
2023-03-01T19:26:36.115Z,24.70
2023-03-01T19:29:06.280Z,24.97
2023-03-01T19:31:39.150Z,25.73
2023-03-01T19:34:11.787Z,25.17
2023-03-01T19:36:42.992Z,25.80
2023-03-01T19:39:15.144Z,25.60
2023-03-01T19:41:43.815Z,32.50
2023-03-01T19:44:13.966Z,39.80
2023-03-01T19:46:43.881Z,33.43
2023-03-01T19:49:12.330Z,36.20
2023-03-01T19:51:40.849Z,63.87
2023-03-01T19:54:11.738Z,98.70
2023-03-01T19:56:41.771Z,42.63
2023-03-01T19:59:10.088Z,36.10
2023-03-01T20:01:42.303Z,34.20
2023-03-01T20:04:11.491Z,38.10
2023-03-01T20:06:41.640Z,33.20
2023-03-01T20:09:21.070Z,33.90
2023-03-01T20:11:50.002Z,33.33
2023-03-01T20:14:18.944Z,31.80
2023-03-01T20:16:48.605Z,36.03
2023-03-01T20:19:16.882Z,34.77
2023-03-01T20:21:45.597Z,35.40
2023-03-01T20:24:14.157Z,34.00
2023-03-01T20:26:42.419Z,33.10
2023-03-01T20:29:11.866Z,33.00
2023-03-01T20:31:42.525Z,33.70
2023-03-01T20:34:12.448Z,31.13
2023-03-01T20:36:41.576Z,31.60
2023-03-01T20:39:11.640Z,34.73
2023-03-01T20:41:40.204Z,31.87
2023-03-01T20:44:09.697Z,29.43
2023-03-01T20:46:39.139Z,33.67
2023-03-01T20:49:07.841Z,35.63
2023-03-01T20:51:37.564Z,28.50
2023-03-01T20:54:06.170Z,26.73
2023-03-01T20:56:35.301Z,29.27
2023-03-01T20:59:05.583Z,41.97
2023-03-01T21:01:34.194Z,50.73
2023-03-01T21:04:02.824Z,43.67
2023-03-01T21:06:32.070Z,34.67
2023-03-01T21:09:03.620Z,29.57
2023-03-01T21:11:32.863Z,27.10
2023-03-01T21:14:01.656Z,27.30
2023-03-01T21:16:30.077Z,24.80
2023-03-01T21:19:01.550Z,29.13
2023-03-01T21:21:30.468Z,31.10
2023-03-01T21:23:58.747Z,27.50
2023-03-01T21:26:29.523Z,33.53
2023-03-01T21:29:01.468Z,37.00
2023-03-01T21:31:33.830Z,30.50
2023-03-01T21:34:05.089Z,32.30
2023-03-01T21:36:35.222Z,31.20
2023-03-01T21:39:03.907Z,33.83
2023-03-01T21:41:36.506Z,27.20
2023-03-01T21:44:07.342Z,22.80
2023-03-01T21:46:38.842Z,25.73
2023-03-01T21:49:08.756Z,23.83
2023-03-01T21:51:37.527Z,24.53
2023-03-01T21:54:06.972Z,27.40
2023-03-01T21:56:39.101Z,26.53
2023-03-01T21:59:16.207Z,26.63
2023-03-01T22:01:45.325Z,25.40
2023-03-01T22:04:14.063Z,25.90
2023-03-01T22:06:45.757Z,25.23
2023-03-01T22:09:17.229Z,23.87
2023-03-01T22:11:49.574Z,24.93
2023-03-01T22:14:19.491Z,25.43
2023-03-01T22:16:51.354Z,28.20
2023-03-01T22:19:20.800Z,27.07
2023-03-01T22:21:52.337Z,30.53
2023-03-01T22:24:23.176Z,27.03
2023-03-01T22:26:54.288Z,26.13
2023-03-01T22:29:25.816Z,22.50
2023-03-01T22:31:55.225Z,24.83
2023-03-01T22:34:23.697Z,27.17
2023-03-01T22:36:52.037Z,27.80
2023-03-01T22:39:22.431Z,24.57
2023-03-01T22:41:52.287Z,22.87
2023-03-01T22:44:22.930Z,29.57
2023-03-01T22:46:52.101Z,32.57
2023-03-01T22:49:20.849Z,23.00
2023-03-01T22:51:49.805Z,26.43
2023-03-01T22:54:21.375Z,26.70
2023-03-01T22:56:52.018Z,23.13
2023-03-01T22:59:23.052Z,26.57
2023-03-01T23:01:52.064Z,23.93
2023-03-01T23:04:21.930Z,27.67
2023-03-01T23:06:54.073Z,28.37
2023-03-01T23:09:25.464Z,29.77
2023-03-01T23:11:56.403Z,28.67
2023-03-01T23:14:25.197Z,23.50
2023-03-01T23:16:54.478Z,30.40
2023-03-01T23:19:23.874Z,28.50
2023-03-01T23:21:54.291Z,26.87
2023-03-01T23:24:25.641Z,30.73
2023-03-01T23:26:55.225Z,24.60
2023-03-01T23:29:23.765Z,22.97
2023-03-01T23:31:52.167Z,24.70
2023-03-01T23:34:20.936Z,27.50
2023-03-01T23:36:49.140Z,27.13
2023-03-01T23:39:17.374Z,28.40
2023-03-01T23:41:45.920Z,24.73
2023-03-01T23:44:17.268Z,27.00
2023-03-01T23:46:46.852Z,36.43
2023-03-01T23:49:17.996Z,29.03
2023-03-01T23:51:47.542Z,27.27
2023-03-01T23:54:18.413Z,25.97
2023-03-01T23:56:47.570Z,27.63
2023-03-01T23:59:19.857Z,22.73
